sensor_id;sensor_type;location;lat;lon;timestamp;P1;durP1;ratioP1;P2;durP2;ratioP2
30062;SDS011;16889;67.864;24.990;2024-01-30T00:01:20;15.30;;;2.08;;
30062;SDS011;16889;67.864;24.990;2024-01-30T00:06:07;24.67;;;2.72;;
30062;SDS011;16889;67.864;24.990;2024-01-30T00:10:53;17.77;;;2.50;;
30062;SDS011;16889;67.864;24.990;2024-01-30T00:15:39;21.60;;;2.45;;
30062;SDS011;16889;67.864;24.990;2024-01-30T00:20:25;9.38;;;1.67;;
30062;SDS011;16889;67.864;24.990;2024-01-30T00:25:11;14.35;;;2.30;;
30062;SDS011;16889;67.864;24.990;2024-01-30T00:29:57;14.07;;;1.83;;
30062;SDS011;16889;67.864;24.990;2024-01-30T00:34:43;10.85;;;1.83;;
30062;SDS011;16889;67.864;24.990;2024-01-30T00:39:29;13.68;;;2.15;;
30062;SDS011;16889;67.864;24.990;2024-01-30T00:44:15;17.92;;;1.60;;
30062;SDS011;16889;67.864;24.990;2024-01-30T00:49:01;8.98;;;1.60;;
30062;SDS011;16889;67.864;24.990;2024-01-30T00:53:47;13.00;;;1.50;;
30062;SDS011;16889;67.864;24.990;2024-01-30T00:58:33;15.52;;;1.70;;
30062;SDS011;16889;67.864;24.990;2024-01-30T01:03:20;8.50;;;1.15;;
30062;SDS011;16889;67.864;24.990;2024-01-30T01:08:06;6.93;;;1.20;;
30062;SDS011;16889;67.864;24.990;2024-01-30T01:12:52;9.30;;;0.90;;
30062;SDS011;16889;67.864;24.990;2024-01-30T01:17:38;9.43;;;1.15;;
30062;SDS011;16889;67.864;24.990;2024-01-30T01:22:25;4.95;;;0.88;;
30062;SDS011;16889;67.864;24.990;2024-01-30T01:27:11;8.02;;;0.95;;
30062;SDS011;16889;67.864;24.990;2024-01-30T01:31:57;6.40;;;1.13;;
30062;SDS011;16889;67.864;24.990;2024-01-30T01:36:43;8.23;;;1.10;;
30062;SDS011;16889;67.864;24.990;2024-01-30T01:41:32;6.53;;;1.00;;
30062;SDS011;16889;67.864;24.990;2024-01-30T01:46:18;5.50;;;0.98;;
30062;SDS011;16889;67.864;24.990;2024-01-30T01:51:04;4.38;;;0.73;;
30062;SDS011;16889;67.864;24.990;2024-01-30T01:55:51;11.07;;;1.70;;
30062;SDS011;16889;67.864;24.990;2024-01-30T02:00:38;11.68;;;1.05;;
30062;SDS011;16889;67.864;24.990;2024-01-30T02:05:26;8.98;;;1.02;;
30062;SDS011;16889;67.864;24.990;2024-01-30T02:10:12;10.07;;;1.10;;
30062;SDS011;16889;67.864;24.990;2024-01-30T02:14:58;6.43;;;0.80;;
30062;SDS011;16889;67.864;24.990;2024-01-30T02:19:44;10.02;;;1.08;;
30062;SDS011;16889;67.864;24.990;2024-01-30T02:24:30;14.70;;;1.60;;
30062;SDS011;16889;67.864;24.990;2024-01-30T02:29:16;6.65;;;1.20;;
30062;SDS011;16889;67.864;24.990;2024-01-30T02:34:02;8.73;;;1.05;;
30062;SDS011;16889;67.864;24.990;2024-01-30T02:38:48;8.93;;;1.23;;
30062;SDS011;16889;67.864;24.990;2024-01-30T02:43:34;9.80;;;1.15;;
30062;SDS011;16889;67.864;24.990;2024-01-30T02:48:20;12.30;;;1.30;;
30062;SDS011;16889;67.864;24.990;2024-01-30T02:53:06;8.35;;;1.02;;
30062;SDS011;16889;67.864;24.990;2024-01-30T02:57:52;12.05;;;1.45;;
30062;SDS011;16889;67.864;24.990;2024-01-30T03:02:38;15.43;;;1.75;;
30062;SDS011;16889;67.864;24.990;2024-01-30T03:07:25;9.70;;;1.60;;
30062;SDS011;16889;67.864;24.990;2024-01-30T03:12:11;11.95;;;1.73;;
30062;SDS011;16889;67.864;24.990;2024-01-30T03:16:57;15.60;;;2.03;;
30062;SDS011;16889;67.864;24.990;2024-01-30T03:21:43;12.50;;;1.55;;
30062;SDS011;16889;67.864;24.990;2024-01-30T03:26:29;9.82;;;1.30;;
30062;SDS011;16889;67.864;24.990;2024-01-30T03:31:16;13.52;;;1.42;;
30062;SDS011;16889;67.864;24.990;2024-01-30T03:36:05;16.02;;;1.83;;
30062;SDS011;16889;67.864;24.990;2024-01-30T03:40:51;10.23;;;1.60;;
30062;SDS011;16889;67.864;24.990;2024-01-30T03:45:37;12.48;;;1.20;;
30062;SDS011;16889;67.864;24.990;2024-01-30T03:50:23;14.23;;;1.35;;
30062;SDS011;16889;67.864;24.990;2024-01-30T03:55:09;13.20;;;1.35;;
30062;SDS011;16889;67.864;24.990;2024-01-30T03:59:55;11.18;;;1.33;;
30062;SDS011;16889;67.864;24.990;2024-01-30T04:04:41;7.57;;;1.23;;
30062;SDS011;16889;67.864;24.990;2024-01-30T04:09:27;8.48;;;1.33;;
30062;SDS011;16889;67.864;24.990;2024-01-30T04:14:13;10.95;;;1.50;;
30062;SDS011;16889;67.864;24.990;2024-01-30T04:18:59;10.35;;;1.30;;
30062;SDS011;16889;67.864;24.990;2024-01-30T04:23:45;15.23;;;1.92;;
30062;SDS011;16889;67.864;24.990;2024-01-30T04:28:32;9.98;;;1.58;;
30062;SDS011;16889;67.864;24.990;2024-01-30T04:33:18;16.17;;;1.88;;
30062;SDS011;16889;67.864;24.990;2024-01-30T04:38:04;17.60;;;2.28;;
30062;SDS011;16889;67.864;24.990;2024-01-30T04:42:49;22.15;;;1.75;;
30062;SDS011;16889;67.864;24.990;2024-01-30T04:47:35;11.30;;;1.95;;
30062;SDS011;16889;67.864;24.990;2024-01-30T04:52:21;13.27;;;1.75;;
30062;SDS011;16889;67.864;24.990;2024-01-30T04:57:07;17.58;;;2.38;;
30062;SDS011;16889;67.864;24.990;2024-01-30T05:01:56;12.50;;;1.90;;
30062;SDS011;16889;67.864;24.990;2024-01-30T05:06:42;19.65;;;2.50;;
30062;SDS011;16889;67.864;24.990;2024-01-30T05:11:28;23.20;;;3.03;;
30062;SDS011;16889;67.864;24.990;2024-01-30T05:16:14;15.48;;;2.20;;
30062;SDS011;16889;67.864;24.990;2024-01-30T05:21:01;13.32;;;1.85;;
30062;SDS011;16889;67.864;24.990;2024-01-30T05:25:48;20.60;;;2.85;;
30062;SDS011;16889;67.864;24.990;2024-01-30T05:30:33;16.65;;;2.47;;
30062;SDS011;16889;67.864;24.990;2024-01-30T05:35:19;15.77;;;2.03;;
30062;SDS011;16889;67.864;24.990;2024-01-30T05:40:06;18.65;;;2.13;;
30062;SDS011;16889;67.864;24.990;2024-01-30T05:44:53;21.07;;;2.20;;
30062;SDS011;16889;67.864;24.990;2024-01-30T05:49:39;20.08;;;2.55;;
30062;SDS011;16889;67.864;24.990;2024-01-30T05:54:25;25.42;;;2.47;;
30062;SDS011;16889;67.864;24.990;2024-01-30T05:59:11;19.80;;;2.15;;
30062;SDS011;16889;67.864;24.990;2024-01-30T06:03:57;22.58;;;2.58;;
30062;SDS011;16889;67.864;24.990;2024-01-30T06:08:43;26.10;;;2.58;;
30062;SDS011;16889;67.864;24.990;2024-01-30T06:13:28;14.98;;;2.25;;
30062;SDS011;16889;67.864;24.990;2024-01-30T06:18:16;25.83;;;3.20;;
30062;SDS011;16889;67.864;24.990;2024-01-30T06:23:03;23.05;;;2.63;;
30062;SDS011;16889;67.864;24.990;2024-01-30T06:27:49;27.45;;;2.60;;
30062;SDS011;16889;67.864;24.990;2024-01-30T06:32:35;27.95;;;2.38;;
30062;SDS011;16889;67.864;24.990;2024-01-30T06:37:21;19.48;;;2.88;;
30062;SDS011;16889;67.864;24.990;2024-01-30T06:42:07;22.48;;;2.40;;
30062;SDS011;16889;67.864;24.990;2024-01-30T06:46:53;22.73;;;2.30;;
30062;SDS011;16889;67.864;24.990;2024-01-30T06:51:39;20.15;;;2.65;;
30062;SDS011;16889;67.864;24.990;2024-01-30T06:56:25;24.77;;;2.72;;
30062;SDS011;16889;67.864;24.990;2024-01-30T07:01:11;22.38;;;2.70;;
30062;SDS011;16889;67.864;24.990;2024-01-30T07:05:57;16.90;;;2.15;;
30062;SDS011;16889;67.864;24.990;2024-01-30T07:10:44;13.17;;;2.20;;
30062;SDS011;16889;67.864;24.990;2024-01-30T07:15:30;15.52;;;2.38;;
30062;SDS011;16889;67.864;24.990;2024-01-30T07:20:16;18.88;;;2.45;;
30062;SDS011;16889;67.864;24.990;2024-01-30T07:25:02;17.08;;;2.58;;
30062;SDS011;16889;67.864;24.990;2024-01-30T07:29:48;16.90;;;2.53;;
30062;SDS011;16889;67.864;24.990;2024-01-30T07:34:34;28.67;;;3.25;;
30062;SDS011;16889;67.864;24.990;2024-01-30T07:39:21;29.88;;;2.92;;
30062;SDS011;16889;67.864;24.990;2024-01-30T07:44:07;20.90;;;2.35;;
30062;SDS011;16889;67.864;24.990;2024-01-30T07:48:53;27.52;;;2.83;;
30062;SDS011;16889;67.864;24.990;2024-01-30T07:53:40;21.40;;;2.70;;
30062;SDS011;16889;67.864;24.990;2024-01-30T07:58:27;15.50;;;2.08;;
30062;SDS011;16889;67.864;24.990;2024-01-30T08:03:13;18.67;;;2.30;;
30062;SDS011;16889;67.864;24.990;2024-01-30T08:08:01;23.63;;;3.17;;
30062;SDS011;16889;67.864;24.990;2024-01-30T08:12:47;13.55;;;2.08;;
30062;SDS011;16889;67.864;24.990;2024-01-30T08:17:33;17.67;;;2.22;;
30062;SDS011;16889;67.864;24.990;2024-01-30T08:22:19;22.52;;;3.13;;
30062;SDS011;16889;67.864;24.990;2024-01-30T08:27:06;25.40;;;2.97;;
30062;SDS011;16889;67.864;24.990;2024-01-30T08:31:54;23.48;;;2.60;;
30062;SDS011;16889;67.864;24.990;2024-01-30T08:36:40;23.85;;;2.20;;
30062;SDS011;16889;67.864;24.990;2024-01-30T08:41:26;24.17;;;2.40;;
30062;SDS011;16889;67.864;24.990;2024-01-30T08:46:12;18.65;;;2.40;;
30062;SDS011;16889;67.864;24.990;2024-01-30T08:51:02;22.17;;;2.60;;
30062;SDS011;16889;67.864;24.990;2024-01-30T08:55:48;21.38;;;2.22;;
30062;SDS011;16889;67.864;24.990;2024-01-30T09:00:34;15.88;;;2.13;;
30062;SDS011;16889;67.864;24.990;2024-01-30T09:05:20;22.67;;;2.58;;
30062;SDS011;16889;67.864;24.990;2024-01-30T09:10:06;13.27;;;2.00;;
30062;SDS011;16889;67.864;24.990;2024-01-30T09:14:52;18.08;;;2.45;;
30062;SDS011;16889;67.864;24.990;2024-01-30T09:19:38;15.65;;;2.15;;
30062;SDS011;16889;67.864;24.990;2024-01-30T09:24:26;18.13;;;2.55;;
30062;SDS011;16889;67.864;24.990;2024-01-30T09:29:12;16.33;;;2.33;;
30062;SDS011;16889;67.864;24.990;2024-01-30T09:33:58;14.63;;;1.83;;
30062;SDS011;16889;67.864;24.990;2024-01-30T09:38:44;16.83;;;2.35;;
30062;SDS011;16889;67.864;24.990;2024-01-30T09:43:31;13.32;;;2.30;;
30062;SDS011;16889;67.864;24.990;2024-01-30T09:48:19;15.77;;;2.30;;
30062;SDS011;16889;67.864;24.990;2024-01-30T09:53:06;13.57;;;1.98;;
30062;SDS011;16889;67.864;24.990;2024-01-30T09:57:54;19.73;;;2.03;;
30062;SDS011;16889;67.864;24.990;2024-01-30T10:02:40;20.77;;;2.22;;
30062;SDS011;16889;67.864;24.990;2024-01-30T10:07:26;14.93;;;1.85;;
30062;SDS011;16889;67.864;24.990;2024-01-30T10:12:12;12.52;;;2.05;;
30062;SDS011;16889;67.864;24.990;2024-01-30T10:16:58;18.92;;;2.28;;
30062;SDS011;16889;67.864;24.990;2024-01-30T10:21:45;11.98;;;1.85;;
30062;SDS011;16889;67.864;24.990;2024-01-30T10:26:31;11.88;;;1.80;;
30062;SDS011;16889;67.864;24.990;2024-01-30T10:31:19;17.92;;;2.17;;
30062;SDS011;16889;67.864;24.990;2024-01-30T10:36:05;12.50;;;1.40;;
30062;SDS011;16889;67.864;24.990;2024-01-30T10:40:51;15.68;;;1.55;;
30062;SDS011;16889;67.864;24.990;2024-01-30T10:45:41;9.68;;;1.35;;
30062;SDS011;16889;67.864;24.990;2024-01-30T10:50:31;9.13;;;1.23;;
30062;SDS011;16889;67.864;24.990;2024-01-30T10:55:20;10.15;;;1.27;;
30062;SDS011;16889;67.864;24.990;2024-01-30T11:00:10;7.45;;;1.08;;
30062;SDS011;16889;67.864;24.990;2024-01-30T11:04:58;6.47;;;0.90;;
30062;SDS011;16889;67.864;24.990;2024-01-30T11:09:51;3.30;;;0.60;;
30062;SDS011;16889;67.864;24.990;2024-01-30T11:14:43;4.18;;;0.80;;
30062;SDS011;16889;67.864;24.990;2024-01-30T11:19:30;8.45;;;1.02;;
30062;SDS011;16889;67.864;24.990;2024-01-30T11:24:18;5.93;;;0.95;;
30062;SDS011;16889;67.864;24.990;2024-01-30T11:29:07;2.92;;;0.93;;
30062;SDS011;16889;67.864;24.990;2024-01-30T11:33:53;3.88;;;0.70;;
30062;SDS011;16889;67.864;24.990;2024-01-30T11:38:39;4.03;;;0.98;;
30062;SDS011;16889;67.864;24.990;2024-01-30T11:43:28;6.63;;;0.75;;
30062;SDS011;16889;67.864;24.990;2024-01-30T11:48:14;3.63;;;0.70;;
30062;SDS011;16889;67.864;24.990;2024-01-30T11:53:00;3.22;;;0.90;;
30062;SDS011;16889;67.864;24.990;2024-01-30T11:57:46;3.90;;;0.90;;
30062;SDS011;16889;67.864;24.990;2024-01-30T12:02:32;3.60;;;0.63;;
30062;SDS011;16889;67.864;24.990;2024-01-30T12:07:18;4.78;;;0.60;;
30062;SDS011;16889;67.864;24.990;2024-01-30T12:12:04;1.77;;;0.47;;
30062;SDS011;16889;67.864;24.990;2024-01-30T12:16:52;4.72;;;0.75;;
30062;SDS011;16889;67.864;24.990;2024-01-30T12:21:38;3.20;;;0.57;;
30062;SDS011;16889;67.864;24.990;2024-01-30T12:26:24;5.53;;;0.90;;
30062;SDS011;16889;67.864;24.990;2024-01-30T12:31:13;3.03;;;0.57;;
30062;SDS011;16889;67.864;24.990;2024-01-30T12:36:02;2.30;;;0.60;;
30062;SDS011;16889;67.864;24.990;2024-01-30T12:40:50;2.72;;;0.60;;
30062;SDS011;16889;67.864;24.990;2024-01-30T12:45:43;7.20;;;0.82;;
30062;SDS011;16889;67.864;24.990;2024-01-30T12:50:29;6.20;;;0.90;;
30062;SDS011;16889;67.864;24.990;2024-01-30T12:55:15;4.57;;;0.70;;
30062;SDS011;16889;67.864;24.990;2024-01-30T13:00:01;6.70;;;0.90;;
30062;SDS011;16889;67.864;24.990;2024-01-30T13:04:47;2.53;;;0.63;;
30062;SDS011;16889;67.864;24.990;2024-01-30T13:09:33;4.55;;;0.75;;
30062;SDS011;16889;67.864;24.990;2024-01-30T13:14:19;3.80;;;0.70;;
30062;SDS011;16889;67.864;24.990;2024-01-30T13:19:05;3.97;;;0.60;;
30062;SDS011;16889;67.864;24.990;2024-01-30T13:23:51;3.25;;;0.80;;
30062;SDS011;16889;67.864;24.990;2024-01-30T13:28:39;3.85;;;0.73;;
30062;SDS011;16889;67.864;24.990;2024-01-30T13:33:26;2.95;;;0.50;;
30062;SDS011;16889;67.864;24.990;2024-01-30T13:38:12;2.50;;;0.70;;
30062;SDS011;16889;67.864;24.990;2024-01-30T13:42:59;2.75;;;0.55;;
30062;SDS011;16889;67.864;24.990;2024-01-30T13:47:45;4.05;;;0.60;;
30062;SDS011;16889;67.864;24.990;2024-01-30T13:52:31;6.50;;;0.70;;
30062;SDS011;16889;67.864;24.990;2024-01-30T13:57:17;9.23;;;0.90;;
30062;SDS011;16889;67.864;24.990;2024-01-30T14:02:03;4.22;;;0.80;;
30062;SDS011;16889;67.864;24.990;2024-01-30T14:06:49;9.48;;;1.05;;
30062;SDS011;16889;67.864;24.990;2024-01-30T14:11:35;8.20;;;0.85;;
30062;SDS011;16889;67.864;24.990;2024-01-30T14:16:21;8.25;;;1.25;;
30062;SDS011;16889;67.864;24.990;2024-01-30T14:21:07;4.25;;;1.30;;
30062;SDS011;16889;67.864;24.990;2024-01-30T14:25:53;7.03;;;1.30;;
30062;SDS011;16889;67.864;24.990;2024-01-30T14:30:39;10.52;;;1.20;;
30062;SDS011;16889;67.864;24.990;2024-01-30T14:35:25;10.95;;;1.40;;
30062;SDS011;16889;67.864;24.990;2024-01-30T14:40:11;11.25;;;1.42;;
30062;SDS011;16889;67.864;24.990;2024-01-30T14:44:57;11.98;;;1.60;;
30062;SDS011;16889;67.864;24.990;2024-01-30T14:49:43;12.05;;;1.80;;
30062;SDS011;16889;67.864;24.990;2024-01-30T14:54:29;13.88;;;2.20;;
30062;SDS011;16889;67.864;24.990;2024-01-30T14:59:15;8.73;;;1.75;;
30062;SDS011;16889;67.864;24.990;2024-01-30T15:04:01;12.15;;;1.70;;
30062;SDS011;16889;67.864;24.990;2024-01-30T15:08:47;10.23;;;1.63;;
30062;SDS011;16889;67.864;24.990;2024-01-30T15:13:33;12.45;;;1.40;;
30062;SDS011;16889;67.864;24.990;2024-01-30T15:18:19;11.98;;;1.92;;
30062;SDS011;16889;67.864;24.990;2024-01-30T15:23:05;8.35;;;1.48;;
30062;SDS011;16889;67.864;24.990;2024-01-30T15:27:51;12.02;;;1.70;;
30062;SDS011;16889;67.864;24.990;2024-01-30T15:32:37;11.20;;;2.80;;
30062;SDS011;16889;67.864;24.990;2024-01-30T15:37:24;17.67;;;1.95;;
30062;SDS011;16889;67.864;24.990;2024-01-30T15:42:10;9.40;;;1.60;;
30062;SDS011;16889;67.864;24.990;2024-01-30T15:46:56;13.43;;;2.05;;
30062;SDS011;16889;67.864;24.990;2024-01-30T15:51:42;13.65;;;1.92;;
30062;SDS011;16889;67.864;24.990;2024-01-30T15:56:28;10.77;;;2.10;;
30062;SDS011;16889;67.864;24.990;2024-01-30T16:01:14;15.23;;;1.80;;
30062;SDS011;16889;67.864;24.990;2024-01-30T16:06:00;11.82;;;1.95;;
30062;SDS011;16889;67.864;24.990;2024-01-30T16:10:46;11.07;;;1.77;;
30062;SDS011;16889;67.864;24.990;2024-01-30T16:15:32;16.48;;;2.25;;
30062;SDS011;16889;67.864;24.990;2024-01-30T16:20:18;12.82;;;1.80;;
30062;SDS011;16889;67.864;24.990;2024-01-30T16:25:04;12.70;;;2.03;;
30062;SDS011;16889;67.864;24.990;2024-01-30T16:29:50;14.10;;;2.13;;
30062;SDS011;16889;67.864;24.990;2024-01-30T16:34:36;16.45;;;2.30;;
30062;SDS011;16889;67.864;24.990;2024-01-30T16:39:22;11.60;;;1.88;;
30062;SDS011;16889;67.864;24.990;2024-01-30T16:44:08;14.13;;;2.15;;
30062;SDS011;16889;67.864;24.990;2024-01-30T16:48:54;12.57;;;2.20;;
30062;SDS011;16889;67.864;24.990;2024-01-30T16:53:40;12.98;;;1.80;;
30062;SDS011;16889;67.864;24.990;2024-01-30T16:58:28;10.95;;;1.83;;
30062;SDS011;16889;67.864;24.990;2024-01-30T17:03:14;13.77;;;2.20;;
30062;SDS011;16889;67.864;24.990;2024-01-30T17:08:00;10.10;;;2.00;;
30062;SDS011;16889;67.864;24.990;2024-01-30T17:12:46;10.52;;;1.85;;
30062;SDS011;16889;67.864;24.990;2024-01-30T17:17:32;11.35;;;1.77;;
30062;SDS011;16889;67.864;24.990;2024-01-30T17:22:18;19.00;;;2.20;;
30062;SDS011;16889;67.864;24.990;2024-01-30T17:27:05;6.90;;;1.83;;
30062;SDS011;16889;67.864;24.990;2024-01-30T17:31:51;21.48;;;2.28;;
30062;SDS011;16889;67.864;24.990;2024-01-30T17:36:37;11.02;;;1.73;;
30062;SDS011;16889;67.864;24.990;2024-01-30T17:41:23;10.27;;;1.80;;
30062;SDS011;16889;67.864;24.990;2024-01-30T17:46:09;11.18;;;1.58;;
30062;SDS011;16889;67.864;24.990;2024-01-30T17:50:55;17.30;;;1.80;;
30062;SDS011;16889;67.864;24.990;2024-01-30T17:55:42;11.40;;;1.47;;
30062;SDS011;16889;67.864;24.990;2024-01-30T18:00:28;9.13;;;1.70;;
30062;SDS011;16889;67.864;24.990;2024-01-30T18:05:14;10.80;;;1.60;;
30062;SDS011;16889;67.864;24.990;2024-01-30T18:10:00;12.80;;;1.58;;
30062;SDS011;16889;67.864;24.990;2024-01-30T18:14:46;14.18;;;1.75;;
30062;SDS011;16889;67.864;24.990;2024-01-30T18:19:33;8.52;;;1.55;;
30062;SDS011;16889;67.864;24.990;2024-01-30T18:24:19;13.63;;;1.70;;
30062;SDS011;16889;67.864;24.990;2024-01-30T18:29:06;9.98;;;1.70;;
30062;SDS011;16889;67.864;24.990;2024-01-30T18:33:53;9.85;;;1.63;;
30062;SDS011;16889;67.864;24.990;2024-01-30T18:38:41;11.52;;;1.70;;
30062;SDS011;16889;67.864;24.990;2024-01-30T18:43:27;5.90;;;1.48;;
30062;SDS011;16889;67.864;24.990;2024-01-30T18:48:13;12.95;;;1.70;;
30062;SDS011;16889;67.864;24.990;2024-01-30T18:53:00;10.27;;;1.40;;
30062;SDS011;16889;67.864;24.990;2024-01-30T18:57:47;10.35;;;1.45;;
30062;SDS011;16889;67.864;24.990;2024-01-30T19:02:33;12.30;;;1.75;;
30062;SDS011;16889;67.864;24.990;2024-01-30T19:07:19;8.95;;;1.40;;
30062;SDS011;16889;67.864;24.990;2024-01-30T19:12:06;11.23;;;1.43;;
30062;SDS011;16889;67.864;24.990;2024-01-30T19:16:52;8.88;;;1.25;;
30062;SDS011;16889;67.864;24.990;2024-01-30T19:21:38;10.73;;;1.38;;
30062;SDS011;16889;67.864;24.990;2024-01-30T19:26:24;9.55;;;1.23;;
30062;SDS011;16889;67.864;24.990;2024-01-30T19:31:11;11.10;;;1.83;;
30062;SDS011;16889;67.864;24.990;2024-01-30T19:35:59;10.30;;;1.25;;
30062;SDS011;16889;67.864;24.990;2024-01-30T19:40:46;7.05;;;1.13;;
30062;SDS011;16889;67.864;24.990;2024-01-30T19:45:32;9.40;;;1.42;;
30062;SDS011;16889;67.864;24.990;2024-01-30T19:50:18;9.65;;;1.27;;
30062;SDS011;16889;67.864;24.990;2024-01-30T19:55:04;5.00;;;1.05;;
30062;SDS011;16889;67.864;24.990;2024-01-30T19:59:51;5.77;;;1.20;;
30062;SDS011;16889;67.864;24.990;2024-01-30T20:04:37;7.22;;;1.00;;
30062;SDS011;16889;67.864;24.990;2024-01-30T20:09:23;6.82;;;1.23;;
30062;SDS011;16889;67.864;24.990;2024-01-30T20:14:09;8.25;;;1.00;;
30062;SDS011;16889;67.864;24.990;2024-01-30T20:18:55;7.88;;;1.10;;
30062;SDS011;16889;67.864;24.990;2024-01-30T20:23:40;5.97;;;1.10;;
30062;SDS011;16889;67.864;24.990;2024-01-30T20:28:27;5.95;;;0.98;;
30062;SDS011;16889;67.864;24.990;2024-01-30T20:33:13;5.35;;;1.10;;
30062;SDS011;16889;67.864;24.990;2024-01-30T20:38:00;8.13;;;1.15;;
30062;SDS011;16889;67.864;24.990;2024-01-30T20:42:47;7.30;;;1.20;;
30062;SDS011;16889;67.864;24.990;2024-01-30T20:47:33;6.78;;;1.00;;
30062;SDS011;16889;67.864;24.990;2024-01-30T20:52:19;5.88;;;0.95;;
30062;SDS011;16889;67.864;24.990;2024-01-30T20:57:05;7.07;;;1.40;;
30062;SDS011;16889;67.864;24.990;2024-01-30T21:01:51;15.30;;;1.55;;
30062;SDS011;16889;67.864;24.990;2024-01-30T21:06:37;5.28;;;1.20;;
30062;SDS011;16889;67.864;24.990;2024-01-30T21:11:23;6.75;;;1.15;;
30062;SDS011;16889;67.864;24.990;2024-01-30T21:16:09;9.23;;;1.10;;
30062;SDS011;16889;67.864;24.990;2024-01-30T21:20:55;7.25;;;1.30;;
30062;SDS011;16889;67.864;24.990;2024-01-30T21:25:42;6.13;;;1.20;;
30062;SDS011;16889;67.864;24.990;2024-01-30T21:30:28;6.30;;;1.05;;
30062;SDS011;16889;67.864;24.990;2024-01-30T21:35:14;5.10;;;1.00;;
30062;SDS011;16889;67.864;24.990;2024-01-30T21:40:00;5.85;;;1.23;;
30062;SDS011;16889;67.864;24.990;2024-01-30T21:44:48;9.27;;;0.93;;
30062;SDS011;16889;67.864;24.990;2024-01-30T21:49:37;9.52;;;1.10;;
30062;SDS011;16889;67.864;24.990;2024-01-30T21:54:24;13.15;;;1.50;;
30062;SDS011;16889;67.864;24.990;2024-01-30T21:59:10;6.75;;;1.20;;
30062;SDS011;16889;67.864;24.990;2024-01-30T22:03:56;4.07;;;1.20;;
30062;SDS011;16889;67.864;24.990;2024-01-30T22:08:44;8.70;;;1.30;;
30062;SDS011;16889;67.864;24.990;2024-01-30T22:13:31;6.05;;;1.05;;
30062;SDS011;16889;67.864;24.990;2024-01-30T22:18:17;4.28;;;0.90;;
30062;SDS011;16889;67.864;24.990;2024-01-30T22:23:03;6.68;;;1.10;;
30062;SDS011;16889;67.864;24.990;2024-01-30T22:27:49;6.47;;;1.00;;
30062;SDS011;16889;67.864;24.990;2024-01-30T22:32:35;4.45;;;1.08;;
30062;SDS011;16889;67.864;24.990;2024-01-30T22:37:21;7.22;;;1.60;;
30062;SDS011;16889;67.864;24.990;2024-01-30T22:42:07;3.70;;;0.93;;
30062;SDS011;16889;67.864;24.990;2024-01-30T22:46:53;4.43;;;1.00;;
30062;SDS011;16889;67.864;24.990;2024-01-30T22:51:39;8.45;;;1.10;;
30062;SDS011;16889;67.864;24.990;2024-01-30T22:56:26;3.60;;;1.02;;
30062;SDS011;16889;67.864;24.990;2024-01-30T23:01:12;6.45;;;1.52;;
30062;SDS011;16889;67.864;24.990;2024-01-30T23:05:58;5.28;;;0.90;;
30062;SDS011;16889;67.864;24.990;2024-01-30T23:10:44;8.00;;;1.48;;
30062;SDS011;16889;67.864;24.990;2024-01-30T23:15:30;7.50;;;0.98;;
30062;SDS011;16889;67.864;24.990;2024-01-30T23:20:16;7.97;;;1.10;;
30062;SDS011;16889;67.864;24.990;2024-01-30T23:25:02;6.43;;;1.00;;
30062;SDS011;16889;67.864;24.990;2024-01-30T23:29:49;5.88;;;1.00;;
30062;SDS011;16889;67.864;24.990;2024-01-30T23:34:35;6.85;;;1.00;;
30062;SDS011;16889;67.864;24.990;2024-01-30T23:39:22;10.00;;;1.40;;
30062;SDS011;16889;67.864;24.990;2024-01-30T23:44:07;7.05;;;1.13;;
30062;SDS011;16889;67.864;24.990;2024-01-30T23:48:53;3.60;;;0.93;;
30062;SDS011;16889;67.864;24.990;2024-01-30T23:53:39;3.03;;;0.68;;
30062;SDS011;16889;67.864;24.990;2024-01-30T23:58:25;5.70;;;0.98;;
